sensor_id;sensor_type;location;lat;lon;timestamp;temperature;humidity
15298;DHT22;7750;48.796;9.026;2022-12-05T00:00:26;6.50;81.30
15298;DHT22;7750;48.796;9.026;2022-12-05T00:05:27;6.50;81.60
15298;DHT22;7750;48.796;9.026;2022-12-05T00:10:28;6.40;81.60
15298;DHT22;7750;48.796;9.026;2022-12-05T00:15:28;6.40;81.50
15298;DHT22;7750;48.796;9.026;2022-12-05T00:20:29;6.40;81.40
15298;DHT22;7750;48.796;9.026;2022-12-05T00:25:30;6.40;81.30
15298;DHT22;7750;48.796;9.026;2022-12-05T00:30:30;6.40;81.30
15298;DHT22;7750;48.796;9.026;2022-12-05T00:35:32;6.30;81.30
15298;DHT22;7750;48.796;9.026;2022-12-05T00:40:35;6.30;81.40
15298;DHT22;7750;48.796;9.026;2022-12-05T00:45:35;6.30;81.50
15298;DHT22;7750;48.796;9.026;2022-12-05T00:50:36;6.20;81.80
15298;DHT22;7750;48.796;9.026;2022-12-05T00:55:36;6.30;81.90
15298;DHT22;7750;48.796;9.026;2022-12-05T01:00:37;6.30;82.00
15298;DHT22;7750;48.796;9.026;2022-12-05T01:05:38;6.30;82.00
15298;DHT22;7750;48.796;9.026;2022-12-05T01:10:38;6.30;82.20
15298;DHT22;7750;48.796;9.026;2022-12-05T01:15:39;6.30;82.30
15298;DHT22;7750;48.796;9.026;2022-12-05T01:20:41;6.40;82.20
15298;DHT22;7750;48.796;9.026;2022-12-05T01:25:44;6.40;82.20
15298;DHT22;7750;48.796;9.026;2022-12-05T01:30:47;6.40;82.10
15298;DHT22;7750;48.796;9.026;2022-12-05T01:35:48;6.40;82.00
15298;DHT22;7750;48.796;9.026;2022-12-05T01:40:48;6.40;81.90
15298;DHT22;7750;48.796;9.026;2022-12-05T01:45:49;6.40;82.10
15298;DHT22;7750;48.796;9.026;2022-12-05T01:50:50;6.40;82.00
15298;DHT22;7750;48.796;9.026;2022-12-05T01:55:51;6.50;81.90
15298;DHT22;7750;48.796;9.026;2022-12-05T02:00:52;6.50;82.00
15298;DHT22;7750;48.796;9.026;2022-12-05T02:05:55;6.50;81.90
15298;DHT22;7750;48.796;9.026;2022-12-05T02:10:57;6.50;82.00
15298;DHT22;7750;48.796;9.026;2022-12-05T02:16:10;6.50;81.80
15298;DHT22;7750;48.796;9.026;2022-12-05T02:21:46;6.50;81.80
15298;DHT22;7750;48.796;9.026;2022-12-05T02:38:03;6.50;82.00
15298;DHT22;7750;48.796;9.026;2022-12-05T02:43:26;6.50;81.90
15298;DHT22;7750;48.796;9.026;2022-12-05T02:48:28;6.50;82.00
15298;DHT22;7750;48.796;9.026;2022-12-05T02:53:30;6.40;82.20
15298;DHT22;7750;48.796;9.026;2022-12-05T02:58:35;6.50;82.50
15298;DHT22;7750;48.796;9.026;2022-12-05T03:03:38;6.50;82.60
15298;DHT22;7750;48.796;9.026;2022-12-05T03:08:45;6.50;82.50
15298;DHT22;7750;48.796;9.026;2022-12-05T03:13:50;6.60;82.50
15298;DHT22;7750;48.796;9.026;2022-12-05T03:19:00;6.60;83.00
15298;DHT22;7750;48.796;9.026;2022-12-05T03:24:07;6.60;82.60
15298;DHT22;7750;48.796;9.026;2022-12-05T03:34:23;6.60;82.90
15298;DHT22;7750;48.796;9.026;2022-12-05T03:39:32;6.70;82.90
15298;DHT22;7750;48.796;9.026;2022-12-05T03:50:00;6.80;82.80
15298;DHT22;7750;48.796;9.026;2022-12-05T03:55:05;6.80;82.80
15298;DHT22;7750;48.796;9.026;2022-12-05T04:00:20;6.80;82.70
15298;DHT22;7750;48.796;9.026;2022-12-05T04:05:34;6.90;82.80
15298;DHT22;7750;48.796;9.026;2022-12-05T04:10:38;6.90;83.00
15298;DHT22;7750;48.796;9.026;2022-12-05T04:16:03;7.00;83.00
15298;DHT22;7750;48.796;9.026;2022-12-05T04:21:27;7.00;82.90
15298;DHT22;7750;48.796;9.026;2022-12-05T04:26:44;7.00;82.90
15298;DHT22;7750;48.796;9.026;2022-12-05T04:31:50;7.10;82.80
15298;DHT22;7750;48.796;9.026;2022-12-05T04:36:55;7.10;82.70
15298;DHT22;7750;48.796;9.026;2022-12-05T04:47:02;7.10;82.70
15298;DHT22;7750;48.796;9.026;2022-12-05T04:52:08;7.10;82.80
15298;DHT22;7750;48.796;9.026;2022-12-05T04:57:29;7.10;82.70
15298;DHT22;7750;48.796;9.026;2022-12-05T05:07:54;7.10;82.90
15298;DHT22;7750;48.796;9.026;2022-12-05T05:12:54;7.10;82.90
15298;DHT22;7750;48.796;9.026;2022-12-05T05:17:55;7.10;82.80
15298;DHT22;7750;48.796;9.026;2022-12-05T05:22:56;7.10;82.90
15298;DHT22;7750;48.796;9.026;2022-12-05T05:27:57;7.20;82.90
15298;DHT22;7750;48.796;9.026;2022-12-05T05:32:58;7.20;83.00
15298;DHT22;7750;48.796;9.026;2022-12-05T05:37:59;7.20;82.90
15298;DHT22;7750;48.796;9.026;2022-12-05T05:43:00;7.20;82.90
15298;DHT22;7750;48.796;9.026;2022-12-05T05:48:00;7.20;82.90
15298;DHT22;7750;48.796;9.026;2022-12-05T05:53:01;7.20;82.80
15298;DHT22;7750;48.796;9.026;2022-12-05T05:58:02;7.20;82.70
15298;DHT22;7750;48.796;9.026;2022-12-05T06:03:03;7.30;82.70
15298;DHT22;7750;48.796;9.026;2022-12-05T06:08:04;7.30;82.80
15298;DHT22;7750;48.796;9.026;2022-12-05T06:13:04;7.30;82.90
15298;DHT22;7750;48.796;9.026;2022-12-05T06:18:05;7.30;82.90
15298;DHT22;7750;48.796;9.026;2022-12-05T06:23:06;7.30;82.80
15298;DHT22;7750;48.796;9.026;2022-12-05T06:28:06;7.40;82.70
15298;DHT22;7750;48.796;9.026;2022-12-05T06:33:08;7.40;82.70
15298;DHT22;7750;48.796;9.026;2022-12-05T06:38:09;7.40;82.60
15298;DHT22;7750;48.796;9.026;2022-12-05T06:43:10;7.40;82.30
15298;DHT22;7750;48.796;9.026;2022-12-05T06:48:11;7.30;82.30
15298;DHT22;7750;48.796;9.026;2022-12-05T06:53:11;7.40;82.40
15298;DHT22;7750;48.796;9.026;2022-12-05T06:58:12;7.30;82.50
15298;DHT22;7750;48.796;9.026;2022-12-05T07:03:13;7.30;82.70
15298;DHT22;7750;48.796;9.026;2022-12-05T07:08:13;7.30;82.60
15298;DHT22;7750;48.796;9.026;2022-12-05T07:13:14;7.30;82.50
15298;DHT22;7750;48.796;9.026;2022-12-05T07:18:15;7.30;82.60
15298;DHT22;7750;48.796;9.026;2022-12-05T07:23:16;7.30;82.70
15298;DHT22;7750;48.796;9.026;2022-12-05T07:28:17;7.40;82.70
15298;DHT22;7750;48.796;9.026;2022-12-05T07:33:17;7.40;82.80
15298;DHT22;7750;48.796;9.026;2022-12-05T07:38:18;7.40;82.60
15298;DHT22;7750;48.796;9.026;2022-12-05T07:43:19;7.40;82.40
15298;DHT22;7750;48.796;9.026;2022-12-05T07:48:19;7.40;82.50
15298;DHT22;7750;48.796;9.026;2022-12-05T07:53:20;7.40;82.60
15298;DHT22;7750;48.796;9.026;2022-12-05T07:58:20;7.50;82.80
15298;DHT22;7750;48.796;9.026;2022-12-05T08:03:21;7.50;82.90
15298;DHT22;7750;48.796;9.026;2022-12-05T08:08:22;7.60;83.00
15298;DHT22;7750;48.796;9.026;2022-12-05T08:13:22;7.70;83.00
15298;DHT22;7750;48.796;9.026;2022-12-05T08:18:23;7.70;82.90
15298;DHT22;7750;48.796;9.026;2022-12-05T08:23:24;7.70;82.70
15298;DHT22;7750;48.796;9.026;2022-12-05T08:28:24;7.70;82.60
15298;DHT22;7750;48.796;9.026;2022-12-05T08:33:25;7.70;82.70
15298;DHT22;7750;48.796;9.026;2022-12-05T08:38:25;7.80;82.80
15298;DHT22;7750;48.796;9.026;2022-12-05T08:43:27;7.80;83.10
15298;DHT22;7750;48.796;9.026;2022-12-05T08:48:29;7.80;83.20
15298;DHT22;7750;48.796;9.026;2022-12-05T08:53:30;7.90;83.20
15298;DHT22;7750;48.796;9.026;2022-12-05T08:58:34;7.90;83.00
15298;DHT22;7750;48.796;9.026;2022-12-05T09:03:35;7.90;82.70
15298;DHT22;7750;48.796;9.026;2022-12-05T09:08:36;7.90;83.50
15298;DHT22;7750;48.796;9.026;2022-12-05T09:13:38;8.00;83.20
15298;DHT22;7750;48.796;9.026;2022-12-05T09:18:39;8.00;83.20
15298;DHT22;7750;48.796;9.026;2022-12-05T09:23:40;8.10;83.80
15298;DHT22;7750;48.796;9.026;2022-12-05T09:28:42;8.20;83.10
15298;DHT22;7750;48.796;9.026;2022-12-05T09:33:43;8.20;83.00
15298;DHT22;7750;48.796;9.026;2022-12-05T09:38:44;8.30;83.00
15298;DHT22;7750;48.796;9.026;2022-12-05T09:43:59;8.30;82.90
15298;DHT22;7750;48.796;9.026;2022-12-05T09:49:04;8.30;82.90
15298;DHT22;7750;48.796;9.026;2022-12-05T09:54:05;8.30;82.80
15298;DHT22;7750;48.796;9.026;2022-12-05T09:59:11;8.40;82.90
15298;DHT22;7750;48.796;9.026;2022-12-05T10:19:52;8.60;82.80
15298;DHT22;7750;48.796;9.026;2022-12-05T10:25:00;8.60;82.80
15298;DHT22;7750;48.796;9.026;2022-12-05T10:30:05;8.60;82.20
15298;DHT22;7750;48.796;9.026;2022-12-05T10:35:47;8.70;82.50
15298;DHT22;7750;48.796;9.026;2022-12-05T10:40:56;8.80;82.10
15298;DHT22;7750;48.796;9.026;2022-12-05T10:45:58;8.80;82.50
15298;DHT22;7750;48.796;9.026;2022-12-05T10:50:59;8.90;82.80
15298;DHT22;7750;48.796;9.026;2022-12-05T10:56:00;9.00;82.70
15298;DHT22;7750;48.796;9.026;2022-12-05T11:01:09;9.10;82.80
15298;DHT22;7750;48.796;9.026;2022-12-05T11:06:16;9.30;82.00
15298;DHT22;7750;48.796;9.026;2022-12-05T11:11:20;9.30;81.40
15298;DHT22;7750;48.796;9.026;2022-12-05T11:16:55;9.30;81.40
15298;DHT22;7750;48.796;9.026;2022-12-05T11:21:56;9.40;81.10
15298;DHT22;7750;48.796;9.026;2022-12-05T11:32:21;9.50;81.10
15298;DHT22;7750;48.796;9.026;2022-12-05T12:52:13;10.80;74.60
15298;DHT22;7750;48.796;9.026;2022-12-05T13:02:38;10.70;74.10
15298;DHT22;7750;48.796;9.026;2022-12-05T13:08:43;10.70;75.60
15298;DHT22;7750;48.796;9.026;2022-12-05T13:13:34;10.70;73.90
15298;DHT22;7750;48.796;9.026;2022-12-05T13:18:36;10.70;74.20
15298;DHT22;7750;48.796;9.026;2022-12-05T13:23:44;10.70;74.10
15298;DHT22;7750;48.796;9.026;2022-12-05T13:28:55;10.60;72.50
15298;DHT22;7750;48.796;9.026;2022-12-05T13:33:57;10.60;71.60
15298;DHT22;7750;48.796;9.026;2022-12-05T13:39:19;10.50;72.50
15298;DHT22;7750;48.796;9.026;2022-12-05T13:44:56;10.40;71.40
15298;DHT22;7750;48.796;9.026;2022-12-05T13:50:00;10.30;72.20
15298;DHT22;7750;48.796;9.026;2022-12-05T13:55:17;10.30;72.40
15298;DHT22;7750;48.796;9.026;2022-12-05T14:00:25;10.30;72.00
15298;DHT22;7750;48.796;9.026;2022-12-05T14:05:38;10.20;71.80
15298;DHT22;7750;48.796;9.026;2022-12-05T14:15:41;10.20;72.00
15298;DHT22;7750;48.796;9.026;2022-12-05T14:31:42;10.20;71.70
15298;DHT22;7750;48.796;9.026;2022-12-05T14:47:24;10.10;71.80
15298;DHT22;7750;48.796;9.026;2022-12-05T14:52:28;10.10;72.00
15298;DHT22;7750;48.796;9.026;2022-12-05T14:57:31;10.10;73.60
15298;DHT22;7750;48.796;9.026;2022-12-05T15:02:44;10.20;74.60
15298;DHT22;7750;48.796;9.026;2022-12-05T15:07:46;10.20;75.70
15298;DHT22;7750;48.796;9.026;2022-12-05T15:12:53;10.10;74.90
15298;DHT22;7750;48.796;9.026;2022-12-05T15:18:19;10.10;75.20
15298;DHT22;7750;48.796;9.026;2022-12-05T15:23:46;10.10;75.60
15298;DHT22;7750;48.796;9.026;2022-12-05T15:34:19;9.90;76.10
15298;DHT22;7750;48.796;9.026;2022-12-05T15:39:24;9.90;76.20
15298;DHT22;7750;48.796;9.026;2022-12-05T15:44:28;9.80;76.30
15298;DHT22;7750;48.796;9.026;2022-12-05T15:49:28;9.80;76.40
15298;DHT22;7750;48.796;9.026;2022-12-05T15:54:32;9.80;76.40
15298;DHT22;7750;48.796;9.026;2022-12-05T15:59:46;9.70;76.50
15298;DHT22;7750;48.796;9.026;2022-12-05T16:04:56;9.70;76.60
15298;DHT22;7750;48.796;9.026;2022-12-05T16:09:59;9.70;77.50
15298;DHT22;7750;48.796;9.026;2022-12-05T16:15:04;9.60;76.90
15298;DHT22;7750;48.796;9.026;2022-12-05T16:25:28;10.00;76.40
15298;DHT22;7750;48.796;9.026;2022-12-05T16:30:30;9.90;76.70
15298;DHT22;7750;48.796;9.026;2022-12-05T16:35:42;9.80;76.80
15298;DHT22;7750;48.796;9.026;2022-12-05T16:45:46;9.70;77.10
15298;DHT22;7750;48.796;9.026;2022-12-05T16:50:47;9.70;77.10
15298;DHT22;7750;48.796;9.026;2022-12-05T16:55:48;9.70;77.20
15298;DHT22;7750;48.796;9.026;2022-12-05T17:00:49;9.60;77.20
15298;DHT22;7750;48.796;9.026;2022-12-05T17:05:50;9.60;77.40
15298;DHT22;7750;48.796;9.026;2022-12-05T17:10:51;9.60;77.50
15298;DHT22;7750;48.796;9.026;2022-12-05T17:15:52;9.60;77.60
15298;DHT22;7750;48.796;9.026;2022-12-05T17:20:55;9.60;77.60
15298;DHT22;7750;48.796;9.026;2022-12-05T17:25:57;9.60;77.80
15298;DHT22;7750;48.796;9.026;2022-12-05T17:30:58;9.50;77.80
15298;DHT22;7750;48.796;9.026;2022-12-05T17:36:01;9.50;77.90
15298;DHT22;7750;48.796;9.026;2022-12-05T17:41:02;9.50;77.90
15298;DHT22;7750;48.796;9.026;2022-12-05T17:46:03;9.50;77.90
15298;DHT22;7750;48.796;9.026;2022-12-05T17:51:03;9.50;77.90
15298;DHT22;7750;48.796;9.026;2022-12-05T17:56:09;9.50;77.90
15298;DHT22;7750;48.796;9.026;2022-12-05T18:01:14;9.50;78.00
15298;DHT22;7750;48.796;9.026;2022-12-05T18:06:15;9.50;78.20
15298;DHT22;7750;48.796;9.026;2022-12-05T18:11:16;9.40;78.70
15298;DHT22;7750;48.796;9.026;2022-12-05T18:16:16;9.40;77.80
15298;DHT22;7750;48.796;9.026;2022-12-05T18:21:18;9.30;77.80
15298;DHT22;7750;48.796;9.026;2022-12-05T18:26:18;9.40;78.00
15298;DHT22;7750;48.796;9.026;2022-12-05T18:31:19;9.30;77.90
15298;DHT22;7750;48.796;9.026;2022-12-05T18:36:20;9.30;78.00
15298;DHT22;7750;48.796;9.026;2022-12-05T18:41:22;9.20;78.10
15298;DHT22;7750;48.796;9.026;2022-12-05T18:46:23;9.20;78.20
15298;DHT22;7750;48.796;9.026;2022-12-05T18:51:23;9.20;78.20
15298;DHT22;7750;48.796;9.026;2022-12-05T18:56:29;9.20;78.30
15298;DHT22;7750;48.796;9.026;2022-12-05T19:01:33;9.20;78.40
15298;DHT22;7750;48.796;9.026;2022-12-05T19:06:35;9.20;78.50
15298;DHT22;7750;48.796;9.026;2022-12-05T19:11:36;9.20;78.40
15298;DHT22;7750;48.796;9.026;2022-12-05T19:16:37;9.20;78.50
15298;DHT22;7750;48.796;9.026;2022-12-05T19:21:38;9.10;78.50
15298;DHT22;7750;48.796;9.026;2022-12-05T19:26:39;9.20;78.60
15298;DHT22;7750;48.796;9.026;2022-12-05T19:31:39;9.10;78.50
15298;DHT22;7750;48.796;9.026;2022-12-05T19:36:44;9.10;78.40
15298;DHT22;7750;48.796;9.026;2022-12-05T19:41:45;9.10;78.40
15298;DHT22;7750;48.796;9.026;2022-12-05T19:46:47;9.10;78.40
15298;DHT22;7750;48.796;9.026;2022-12-05T19:51:48;9.10;79.20
15298;DHT22;7750;48.796;9.026;2022-12-05T19:56:49;9.00;78.50
15298;DHT22;7750;48.796;9.026;2022-12-05T20:01:49;9.00;78.70
15298;DHT22;7750;48.796;9.026;2022-12-05T20:06:50;9.00;78.70
15298;DHT22;7750;48.796;9.026;2022-12-05T20:11:51;9.00;78.70
15298;DHT22;7750;48.796;9.026;2022-12-05T20:16:52;9.00;78.90
15298;DHT22;7750;48.796;9.026;2022-12-05T20:21:53;9.00;78.90
15298;DHT22;7750;48.796;9.026;2022-12-05T20:26:54;9.00;79.00
15298;DHT22;7750;48.796;9.026;2022-12-05T20:31:55;9.00;78.90
15298;DHT22;7750;48.796;9.026;2022-12-05T20:36:57;8.90;78.90
15298;DHT22;7750;48.796;9.026;2022-12-05T20:41:58;8.90;79.00
15298;DHT22;7750;48.796;9.026;2022-12-05T20:46:59;8.90;79.10
15298;DHT22;7750;48.796;9.026;2022-12-05T20:51:59;8.90;79.10
15298;DHT22;7750;48.796;9.026;2022-12-05T20:57:00;8.90;79.20
15298;DHT22;7750;48.796;9.026;2022-12-05T21:02:05;8.90;79.30
15298;DHT22;7750;48.796;9.026;2022-12-05T21:07:06;9.00;79.20
15298;DHT22;7750;48.796;9.026;2022-12-05T21:12:07;8.90;79.00
15298;DHT22;7750;48.796;9.026;2022-12-05T21:17:08;8.90;78.80
15298;DHT22;7750;48.796;9.026;2022-12-05T21:22:09;8.90;78.90
15298;DHT22;7750;48.796;9.026;2022-12-05T21:27:09;8.90;79.00
15298;DHT22;7750;48.796;9.026;2022-12-05T21:32:10;8.90;79.00
15298;DHT22;7750;48.796;9.026;2022-12-05T21:37:11;8.90;78.90
15298;DHT22;7750;48.796;9.026;2022-12-05T21:42:12;8.80;78.70
15298;DHT22;7750;48.796;9.026;2022-12-05T21:47:12;8.80;78.70
15298;DHT22;7750;48.796;9.026;2022-12-05T21:52:13;8.80;78.70
15298;DHT22;7750;48.796;9.026;2022-12-05T21:57:14;8.80;78.70
15298;DHT22;7750;48.796;9.026;2022-12-05T22:02:14;8.70;78.50
15298;DHT22;7750;48.796;9.026;2022-12-05T22:07:15;8.70;78.40
15298;DHT22;7750;48.796;9.026;2022-12-05T22:12:16;8.60;78.40
15298;DHT22;7750;48.796;9.026;2022-12-05T22:17:17;8.60;78.10
15298;DHT22;7750;48.796;9.026;2022-12-05T22:22:17;8.50;78.10
15298;DHT22;7750;48.796;9.026;2022-12-05T22:27:18;8.50;78.20
15298;DHT22;7750;48.796;9.026;2022-12-05T22:32:18;8.50;78.30
15298;DHT22;7750;48.796;9.026;2022-12-05T22:37:19;8.40;78.20
15298;DHT22;7750;48.796;9.026;2022-12-05T22:42:20;8.40;78.20
15298;DHT22;7750;48.796;9.026;2022-12-05T22:47:20;8.40;78.20
15298;DHT22;7750;48.796;9.026;2022-12-05T22:52:22;8.30;78.30
15298;DHT22;7750;48.796;9.026;2022-12-05T22:57:22;8.30;78.50
15298;DHT22;7750;48.796;9.026;2022-12-05T23:02:23;8.30;78.60
15298;DHT22;7750;48.796;9.026;2022-12-05T23:07:23;8.40;78.60
15298;DHT22;7750;48.796;9.026;2022-12-05T23:12:24;8.30;78.50
15298;DHT22;7750;48.796;9.026;2022-12-05T23:17:25;8.30;78.70
15298;DHT22;7750;48.796;9.026;2022-12-05T23:22:25;8.30;78.80
15298;DHT22;7750;48.796;9.026;2022-12-05T23:27:26;8.30;79.00
15298;DHT22;7750;48.796;9.026;2022-12-05T23:32:26;8.30;79.10
15298;DHT22;7750;48.796;9.026;2022-12-05T23:37:27;8.30;79.10
15298;DHT22;7750;48.796;9.026;2022-12-05T23:42:28;8.30;78.90
15298;DHT22;7750;48.796;9.026;2022-12-05T23:47:28;8.30;78.90
15298;DHT22;7750;48.796;9.026;2022-12-05T23:52:29;8.30;79.00
15298;DHT22;7750;48.796;9.026;2022-12-05T23:57:29;8.30;79.00
